createdAt,value
2023-03-15T00:04:06.726Z,2.45
2023-03-15T00:09:10.204Z,1.92
2023-03-15T00:14:16.466Z,1.35
2023-03-15T00:19:24.593Z,1.08
2023-03-15T00:24:28.847Z,1.63
2023-03-15T00:29:32.891Z,0.90
2023-03-15T00:34:40.841Z,3.33
2023-03-15T00:39:46.262Z,2.65
2023-03-15T00:44:49.208Z,0.30
2023-03-15T00:49:54.500Z,1.15
2023-03-15T01:00:07.992Z,0.80
2023-03-15T01:05:15.877Z,0.53
2023-03-15T01:10:18.997Z,0.20
2023-03-15T01:15:23.278Z,1.08
2023-03-15T01:20:30.308Z,0.30
2023-03-15T01:25:34.822Z,0.47
2023-03-15T01:30:38.668Z,0.53
2023-03-15T01:36:12.834Z,0.20
2023-03-15T01:41:26.007Z,1.27
2023-03-15T01:46:35.355Z,0.57
2023-03-15T01:51:59.721Z,0.50
2023-03-15T01:57:20.355Z,0.73
2023-03-15T02:02:29.650Z,0.83
2023-03-15T02:07:53.496Z,1.47
2023-03-15T02:12:59.996Z,0.47
2023-03-15T02:18:05.511Z,0.63
2023-03-15T02:23:16.031Z,0.77
2023-03-15T02:28:27.672Z,1.17
2023-03-15T02:33:32.652Z,1.20
2023-03-15T02:38:36.113Z,1.43
2023-03-15T02:43:43.157Z,1.03
2023-03-15T02:48:47.488Z,1.40
2023-03-15T02:53:50.563Z,1.27
2023-03-15T02:58:57.571Z,1.50
2023-03-15T03:04:00.649Z,0.87
2023-03-15T03:09:04.756Z,1.03
2023-03-15T03:14:09.592Z,1.58
2023-03-15T03:19:17.010Z,0.80
2023-03-15T03:24:22.709Z,1.90
2023-03-15T03:29:40.390Z,2.03
2023-03-15T03:34:49.443Z,2.47
2023-03-15T03:39:52.592Z,1.93
2023-03-15T03:44:58.699Z,4.57
2023-03-15T03:50:02.101Z,2.60
2023-03-15T03:55:06.946Z,1.65
2023-03-15T04:00:14.525Z,1.10
2023-03-15T04:05:18.283Z,1.63
2023-03-15T04:10:32.527Z,0.87
2023-03-15T04:15:50.739Z,1.40
2023-03-15T04:21:11.217Z,1.60
2023-03-15T04:26:27.554Z,2.30
2023-03-15T04:31:38.646Z,0.67
2023-03-15T04:36:42.840Z,1.43
2023-03-15T04:41:47.442Z,1.15
2023-03-15T04:46:52.287Z,2.43
2023-03-15T04:51:55.523Z,3.10
2023-03-15T04:57:00.384Z,3.87
2023-03-15T05:02:05.489Z,6.75
2023-03-15T05:07:09.605Z,1.80
2023-03-15T05:12:14.764Z,1.45
2023-03-15T05:17:25.183Z,3.97
2023-03-15T05:22:31.932Z,1.47
2023-03-15T05:27:35.305Z,1.70
2023-03-15T05:32:45.244Z,0.83
2023-03-15T05:37:49.999Z,1.70
2023-03-15T05:42:53.229Z,1.80
2023-03-15T05:48:01.001Z,4.27
2023-03-15T05:53:04.514Z,2.67
2023-03-15T05:58:07.781Z,1.70
2023-03-15T06:03:12.699Z,1.57
2023-03-15T06:08:16.809Z,5.50
2023-03-15T06:13:20.658Z,1.50
2023-03-15T06:18:25.598Z,2.77
2023-03-15T06:23:29.404Z,2.33
2023-03-15T06:28:35.185Z,2.00
2023-03-15T06:33:43.267Z,2.10
2023-03-15T06:38:47.871Z,2.67
2023-03-15T06:43:52.109Z,5.50
2023-03-15T06:48:56.791Z,1.45
2023-03-15T06:54:03.221Z,2.63
2023-03-15T06:59:06.571Z,5.78
2023-03-15T07:04:12.516Z,4.68
2023-03-15T07:09:16.185Z,5.43
2023-03-15T07:14:19.922Z,7.22
2023-03-15T07:24:28.446Z,6.90
2023-03-15T07:29:32.657Z,5.47
2023-03-15T07:34:36.681Z,9.77
2023-03-15T07:39:41.732Z,4.85
2023-03-15T07:44:45.357Z,6.53
2023-03-15T07:49:48.768Z,5.47
2023-03-15T07:55:10.516Z,7.30
2023-03-15T08:00:14.906Z,4.85
2023-03-15T08:05:21.077Z,9.63
2023-03-15T08:10:26.086Z,6.03
2023-03-15T08:15:29.118Z,7.43
2023-03-15T08:20:34.040Z,6.03
2023-03-15T08:25:41.216Z,3.97
2023-03-15T08:30:47.392Z,7.32
2023-03-15T08:35:54.879Z,6.35
2023-03-15T08:41:01.961Z,5.82
2023-03-15T08:46:05.037Z,8.13
2023-03-15T08:51:10.164Z,6.30
2023-03-15T08:56:15.248Z,6.50
2023-03-15T09:01:20.138Z,5.10
2023-03-15T09:06:23.523Z,4.95
2023-03-15T09:11:28.758Z,8.05
2023-03-15T09:16:32.038Z,5.07
2023-03-15T09:21:35.593Z,5.72
2023-03-15T09:26:41.438Z,7.53
2023-03-15T09:31:45.187Z,7.22
2023-03-15T09:36:54.376Z,8.07
2023-03-15T09:42:05.370Z,7.60
2023-03-15T09:47:20.497Z,5.47
2023-03-15T09:52:33.042Z,5.57
2023-03-15T10:02:53.780Z,5.97
2023-03-15T10:13:36.836Z,3.65
2023-03-15T10:19:12.535Z,5.40
2023-03-15T10:24:23.741Z,4.50
2023-03-15T10:29:28.816Z,3.75
2023-03-15T10:34:36.789Z,5.57
2023-03-15T10:39:39.795Z,4.32
2023-03-15T10:44:53.931Z,2.75
2023-03-15T10:50:03.748Z,5.15
2023-03-15T10:55:08.283Z,6.15
2023-03-15T11:00:25.319Z,6.30
2023-03-15T11:05:33.301Z,3.17
2023-03-15T11:10:38.158Z,2.47
2023-03-15T11:15:44.643Z,3.30
2023-03-15T11:20:50.124Z,4.10
2023-03-15T11:31:47.203Z,2.25
2023-03-15T11:37:07.621Z,3.45
2023-03-15T11:42:16.304Z,2.65
2023-03-15T11:47:26.208Z,3.72
2023-03-15T11:52:36.821Z,3.38
2023-03-15T11:57:46.736Z,3.92
2023-03-15T12:02:54.391Z,1.55
2023-03-15T12:08:17.394Z,6.18
2023-03-15T12:13:50.107Z,2.55
2023-03-15T12:19:00.077Z,4.10
2023-03-15T12:24:20.787Z,2.33
2023-03-15T12:29:45.821Z,2.53
2023-03-15T12:34:55.326Z,2.97
2023-03-15T12:40:03.898Z,2.08
2023-03-15T12:45:41.976Z,3.60
2023-03-15T12:51:01.917Z,1.92
2023-03-15T12:56:25.316Z,1.80
2023-03-15T13:01:33.902Z,1.77
2023-03-15T13:06:47.573Z,2.72
2023-03-15T13:11:57.359Z,1.70
2023-03-15T13:17:11.738Z,3.22
2023-03-15T13:22:22.821Z,0.85
2023-03-15T13:27:48.472Z,3.22
2023-03-15T13:33:03.785Z,0.30
2023-03-15T13:38:28.268Z,3.42
2023-03-15T13:43:36.000Z,1.50
2023-03-15T13:48:41.841Z,1.42
2023-03-15T13:53:50.539Z,3.25
2023-03-15T13:58:55.464Z,1.27
2023-03-15T14:04:01.061Z,2.38
2023-03-15T14:09:13.486Z,1.17
2023-03-15T14:14:32.563Z,1.93
2023-03-15T14:19:37.308Z,1.17
2023-03-15T14:24:49.876Z,3.50
2023-03-15T14:29:56.205Z,1.20
2023-03-15T14:35:08.483Z,1.45
2023-03-15T14:40:35.345Z,1.70
2023-03-15T14:45:45.390Z,2.42
2023-03-15T14:50:49.464Z,4.20
2023-03-15T14:56:02.073Z,0.98
2023-03-15T15:01:23.099Z,0.93
2023-03-15T15:06:30.842Z,0.85
2023-03-15T15:11:38.293Z,1.83
2023-03-15T15:16:45.955Z,3.15
2023-03-15T15:21:55.378Z,2.05
2023-03-15T15:27:09.638Z,1.40
2023-03-15T15:32:20.341Z,0.32
2023-03-15T15:37:32.723Z,1.52
2023-03-15T15:42:38.901Z,1.08
2023-03-15T15:47:46.272Z,0.93
2023-03-15T15:52:50.666Z,3.10
2023-03-15T15:58:00.389Z,3.95
2023-03-15T16:03:05.595Z,2.42
2023-03-15T16:08:12.635Z,1.48
2023-03-15T16:13:19.373Z,2.97
2023-03-15T16:18:25.126Z,3.75
2023-03-15T16:23:31.554Z,6.15
2023-03-15T16:28:43.162Z,2.17
2023-03-15T16:33:58.772Z,2.45
2023-03-15T16:44:24.140Z,5.20
2023-03-15T16:49:28.480Z,4.70
2023-03-15T16:54:40.863Z,6.32
2023-03-15T16:59:49.295Z,2.73
2023-03-15T17:04:55.446Z,3.38
2023-03-15T17:10:01.204Z,3.63
2023-03-15T17:15:10.361Z,3.97
2023-03-15T17:20:29.760Z,6.00
2023-03-15T17:25:40.637Z,5.57
2023-03-15T17:30:46.472Z,4.07
2023-03-15T17:35:57.070Z,4.88
2023-03-15T17:41:03.302Z,3.17
2023-03-15T17:46:12.609Z,5.68
2023-03-15T17:51:19.052Z,5.03
2023-03-15T17:56:26.532Z,5.55
2023-03-15T18:01:36.473Z,6.25
2023-03-15T18:06:40.799Z,4.13
2023-03-15T18:17:00.663Z,5.95
2023-03-15T18:22:13.101Z,4.20
2023-03-15T18:27:19.890Z,4.28
2023-03-15T18:32:26.292Z,4.38
2023-03-15T18:37:31.086Z,4.20
2023-03-15T18:42:34.503Z,3.35
2023-03-15T18:47:39.006Z,2.87
2023-03-15T18:52:41.705Z,3.88
2023-03-15T18:57:48.525Z,3.13
2023-03-15T19:02:56.826Z,5.72
2023-03-15T19:08:00.880Z,6.15
2023-03-15T19:13:05.061Z,5.13
2023-03-15T19:18:20.990Z,4.35
2023-03-15T19:23:23.599Z,3.15
2023-03-15T19:28:30.277Z,7.57
2023-03-15T19:33:35.870Z,4.03
2023-03-15T19:38:39.044Z,5.95
2023-03-15T19:43:43.767Z,5.50
2023-03-15T19:48:48.536Z,1.40
2023-03-15T19:53:52.067Z,2.38
2023-03-15T19:58:58.479Z,6.03
2023-03-15T20:04:04.422Z,4.30
2023-03-15T20:09:10.835Z,4.38
2023-03-15T20:14:15.218Z,5.07
2023-03-15T20:19:20.322Z,4.07
2023-03-15T20:24:25.655Z,2.58
2023-03-15T20:29:31.569Z,4.82
2023-03-15T20:34:37.211Z,5.32
2023-03-15T20:39:40.370Z,0.63
2023-03-15T20:44:43.605Z,2.35
2023-03-15T20:49:48.149Z,3.03
2023-03-15T20:54:51.372Z,4.18
2023-03-15T20:59:55.255Z,1.60
2023-03-15T21:05:01.430Z,2.28
2023-03-15T21:10:08.435Z,2.40
2023-03-15T21:15:15.382Z,4.88
2023-03-15T21:20:22.116Z,3.58
2023-03-15T21:25:25.965Z,4.43
2023-03-15T21:30:28.804Z,5.60
2023-03-15T21:35:33.884Z,3.13
2023-03-15T21:40:36.942Z,4.55
2023-03-15T21:45:44.930Z,6.80
2023-03-15T21:50:53.858Z,6.05
2023-03-15T21:55:58.284Z,5.30
2023-03-15T22:01:04.461Z,5.93
2023-03-15T22:06:15.781Z,5.15
2023-03-15T22:11:19.272Z,6.10
2023-03-15T22:16:23.335Z,6.95
2023-03-15T22:21:28.266Z,6.77
2023-03-15T22:26:31.894Z,9.90
2023-03-15T22:31:38.379Z,8.75
2023-03-15T22:36:44.294Z,10.07
2023-03-15T22:41:48.187Z,29.17
2023-03-15T22:46:52.190Z,4.20
2023-03-15T22:52:07.415Z,5.07
2023-03-15T22:57:13.147Z,5.37
2023-03-15T23:02:16.192Z,7.60
2023-03-15T23:07:20.474Z,8.77
2023-03-15T23:12:33.782Z,7.67
2023-03-15T23:17:39.309Z,10.10
2023-03-15T23:22:43.884Z,9.88
2023-03-15T23:27:47.945Z,10.77
2023-03-15T23:32:57.772Z,9.30
2023-03-15T23:38:04.557Z,7.27
2023-03-15T23:43:09.805Z,7.57
2023-03-15T23:48:12.977Z,8.53
2023-03-15T23:53:17.795Z,10.93
2023-03-15T23:58:22.146Z,7.85
